首页
METAR-TAF:

METAR-TAF

机场 :

Mount Pleasant Municipal Airport

Mount Pleasant, 艾奥瓦州, 美国

纬度: 40-56-48N, 经度: 091-30-40W, 海拔: 224米

当前天气观测

该预报发布于7分钟前的18:55 UTC
风速12节,风向北转东北
温度 26°C
湿度 58%
气压 1019 hPa
能見度: 16.1公里
散云层高于4100英尺
散云层高于5000英尺
多云层高于7000英尺

METAR: KMPZ 221855Z AUTO 02012KT 10SM SCT041 SCT050 BKN070 26/17 A3010 RMK AO2

时间: 14:02 (19:02 UTC)


TAF: 丢失

超过4000个机场的气象观测和天气预报(METAR&TAF报告)。

可查询的气象台以黄色和红色小点在地图上表示。

将鼠标移到小点上方,可查看气象台名称。

然后点击查看天气观测和预报。

如需切换地图:点击带黑十字的绿色按钮放大地图;点击带横线的绿色按钮缩小地图;或者点击绿色箭头查看邻近地区的地图。


METAR-TAF: